createdAt,value
2019-05-07T00:03:25.664Z,14.10
2019-05-07T00:08:28.128Z,16.67
2019-05-07T00:13:30.590Z,12.17
2019-05-07T00:18:33.045Z,12.37
2019-05-07T00:23:35.498Z,15.57
2019-05-07T00:28:37.967Z,17.60
2019-05-07T00:33:40.427Z,13.50
2019-05-07T00:38:42.875Z,18.63
2019-05-07T00:43:45.341Z,13.97
2019-05-07T00:48:47.807Z,13.47
2019-05-07T00:53:52.051Z,13.90
2019-05-07T00:58:52.944Z,15.83
2019-05-07T01:03:55.164Z,13.57
2019-05-07T01:08:57.608Z,14.13
2019-05-07T01:14:00.080Z,18.60
2019-05-07T01:19:02.548Z,14.03
2019-05-07T01:24:05.001Z,14.80
2019-05-07T01:29:07.453Z,13.37
2019-05-07T01:34:12.047Z,15.17
2019-05-07T01:39:13.118Z,12.43
2019-05-07T01:44:14.818Z,14.77
2019-05-07T01:49:17.269Z,16.57
2019-05-07T01:54:23.532Z,15.60
2019-05-07T01:59:22.627Z,16.57
2019-05-07T02:04:33.329Z,13.30
2019-05-07T02:09:38.547Z,12.40
2019-05-07T02:14:42.265Z,15.03
2019-05-07T02:19:43.457Z,14.30
2019-05-07T02:24:45.918Z,16.33
2019-05-07T02:29:48.364Z,15.83
2019-05-07T02:34:54.173Z,19.33
2019-05-07T02:39:56.097Z,19.10
2019-05-07T02:45:16.844Z,18.57
2019-05-07T02:50:28.297Z,19.60
2019-05-07T02:55:33.431Z,17.90
2019-05-07T03:00:33.559Z,16.23
2019-05-07T03:05:35.667Z,16.23
2019-05-07T03:10:38.227Z,14.37
2019-05-07T03:15:43.226Z,18.90
2019-05-07T03:20:53.533Z,14.00
2019-05-07T03:25:57.422Z,16.20
2019-05-07T03:31:18.514Z,17.97
2019-05-07T03:36:25.820Z,14.23
2019-05-07T03:41:23.389Z,20.17
2019-05-07T03:46:25.849Z,15.57
2019-05-07T03:51:28.303Z,15.03
2019-05-07T03:56:33.024Z,14.20
2019-05-07T04:01:33.587Z,13.53
2019-05-07T04:06:35.738Z,13.43
2019-05-07T04:11:38.187Z,13.17
2019-05-07T04:16:43.878Z,16.13
2019-05-07T04:21:43.582Z,13.00
2019-05-07T04:27:03.935Z,14.67
2019-05-07T04:32:06.395Z,11.67
2019-05-07T04:37:08.833Z,10.90
2019-05-07T04:42:13.256Z,13.53
2019-05-07T04:47:32.324Z,13.07
2019-05-07T04:52:25.303Z,12.00
2019-05-07T04:57:27.774Z,14.60
2019-05-07T05:02:45.531Z,16.57
2019-05-07T05:07:47.983Z,13.90
2019-05-07T05:12:53.376Z,12.77
2019-05-07T05:17:54.054Z,13.00
2019-05-07T05:22:55.523Z,12.73
2019-05-07T05:27:57.985Z,13.37
2019-05-07T05:33:02.214Z,16.20
2019-05-07T05:38:03.148Z,12.23
2019-05-07T05:43:12.719Z,12.23
2019-05-07T05:48:13.901Z,14.50
2019-05-07T05:53:34.469Z,13.00
2019-05-07T05:58:49.229Z,15.67
2019-05-07T06:04:12.330Z,11.83
2019-05-07T06:09:32.797Z,10.70
2019-05-07T06:14:33.510Z,10.83
2019-05-07T06:19:38.667Z,8.70
2019-05-07T06:24:44.229Z,11.77
2019-05-07T06:29:46.685Z,13.00
2019-05-07T06:34:49.143Z,13.83
2019-05-07T06:40:09.585Z,13.13
2019-05-07T06:45:18.199Z,12.87
2019-05-07T06:50:22.071Z,11.53
2019-05-07T06:55:23.127Z,10.80
2019-05-07T07:00:25.584Z,9.57
2019-05-07T07:05:33.000Z,12.80
2019-05-07T07:10:52.260Z,13.77
2019-05-07T07:15:54.123Z,13.20
2019-05-07T07:20:56.576Z,10.47
2019-05-07T07:26:05.038Z,14.53
2019-05-07T07:31:13.364Z,15.20
2019-05-07T07:36:15.830Z,13.57
2019-05-07T07:41:18.291Z,14.80
2019-05-07T07:46:22.153Z,17.47
2019-05-07T07:51:37.235Z,14.17
2019-05-07T07:56:52.639Z,12.60
2019-05-07T08:01:49.442Z,11.27
2019-05-07T08:07:04.107Z,14.10
2019-05-07T08:12:06.815Z,11.13
2019-05-07T08:17:09.170Z,9.37
2019-05-07T08:22:12.122Z,12.60
2019-05-07T08:27:15.266Z,16.47
2019-05-07T08:32:22.119Z,11.67
2019-05-07T08:37:24.297Z,11.43
2019-05-07T08:42:24.640Z,11.93
2019-05-07T08:47:36.141Z,10.93
2019-05-07T08:52:38.609Z,8.35
2019-05-07T08:57:42.046Z,9.57
2019-05-07T09:02:43.531Z,9.60
2019-05-07T09:07:45.993Z,7.55
2019-05-07T09:12:48.468Z,10.30
2019-05-07T09:17:52.681Z,9.07
2019-05-07T09:22:53.378Z,5.53
2019-05-07T09:27:55.846Z,8.50
2019-05-07T09:32:58.363Z,9.88
2019-05-07T09:38:03.022Z,7.53
2019-05-07T09:43:03.294Z,8.63
2019-05-07T09:48:05.729Z,7.20
2019-05-07T09:53:08.195Z,5.65
2019-05-07T09:58:12.588Z,9.52
2019-05-07T10:03:13.119Z,9.00
2019-05-07T10:08:15.588Z,5.83
2019-05-07T10:13:18.042Z,6.37
2019-05-07T10:18:22.700Z,7.05
2019-05-07T10:23:23.391Z,10.73
2019-05-07T10:28:25.458Z,5.40
2019-05-07T10:33:27.936Z,6.80
2019-05-07T10:38:30.397Z,6.57
2019-05-07T10:43:32.965Z,13.10
2019-05-07T10:48:38.390Z,8.90
2019-05-07T10:53:42.423Z,6.23
2019-05-07T10:58:43.355Z,8.50
2019-05-07T11:03:45.812Z,9.67
2019-05-07T11:08:48.379Z,7.93
2019-05-07T11:13:55.334Z,6.80
2019-05-07T11:18:53.303Z,9.63
2019-05-07T11:23:55.891Z,6.07
2019-05-07T11:28:58.296Z,8.80
2019-05-07T11:34:02.802Z,7.47
2019-05-07T11:39:03.225Z,5.53
2019-05-07T11:44:05.685Z,8.27
2019-05-07T11:49:17.389Z,8.87
2019-05-07T11:54:19.860Z,9.53
2019-05-07T11:59:29.349Z,8.87
2019-05-07T12:04:32.072Z,6.93
2019-05-07T12:09:34.292Z,7.40
2019-05-07T12:14:36.754Z,6.10
2019-05-07T12:19:39.211Z,6.73
2019-05-07T12:24:41.943Z,5.87
2019-05-07T12:29:44.129Z,4.97
2019-05-07T12:34:46.593Z,5.77
2019-05-07T12:39:49.038Z,6.57
2019-05-07T12:44:51.805Z,6.73
2019-05-07T12:49:53.949Z,4.83
2019-05-07T12:54:56.415Z,8.70
2019-05-07T12:59:59.022Z,8.27
2019-05-07T13:05:02.923Z,7.60
2019-05-07T13:10:03.987Z,7.03
2019-05-07T13:15:06.462Z,4.53
2019-05-07T13:20:08.919Z,5.37
2019-05-07T13:25:11.380Z,5.67
2019-05-07T13:30:13.848Z,8.00
2019-05-07T13:35:16.315Z,6.27
2019-05-07T13:40:21.456Z,7.90
2019-05-07T13:45:44.516Z,6.53
2019-05-07T13:50:44.636Z,7.47
2019-05-07T13:55:47.093Z,5.77
2019-05-07T14:00:52.513Z,6.90
2019-05-07T14:05:54.974Z,4.73
2019-05-07T14:10:57.429Z,7.20
2019-05-07T14:16:06.108Z,5.83
2019-05-07T14:21:08.570Z,7.53
2019-05-07T14:26:11.023Z,7.70
2019-05-07T14:31:13.495Z,6.90
2019-05-07T14:36:15.971Z,7.60
2019-05-07T14:41:18.425Z,7.00
2019-05-07T14:46:20.895Z,5.67
2019-05-07T14:51:23.370Z,6.17
2019-05-07T14:56:25.832Z,22.97
2019-05-07T15:01:28.315Z,10.40
2019-05-07T15:06:32.561Z,5.83
2019-05-07T15:11:33.287Z,8.17
2019-05-07T15:16:35.703Z,7.33
2019-05-07T15:21:38.296Z,7.77
2019-05-07T15:26:41.952Z,6.67
2019-05-07T15:31:55.522Z,8.30
2019-05-07T15:36:57.989Z,7.40
2019-05-07T15:42:02.243Z,8.30
2019-05-07T15:47:02.921Z,6.07
2019-05-07T15:52:05.423Z,8.97
2019-05-07T15:57:07.857Z,10.63
2019-05-07T16:02:12.263Z,12.93
2019-05-07T16:07:13.250Z,6.93
2019-05-07T16:12:15.277Z,6.63
2019-05-07T16:17:24.546Z,6.53
2019-05-07T16:22:29.149Z,7.33
2019-05-07T16:27:31.814Z,8.87
2019-05-07T16:32:34.088Z,8.13
2019-05-07T16:37:36.568Z,5.10
2019-05-07T16:42:39.039Z,6.97
2019-05-07T16:47:41.506Z,5.03
2019-05-07T16:52:43.987Z,7.10
2019-05-07T16:57:55.443Z,8.97
2019-05-07T17:02:57.922Z,12.13
2019-05-07T17:08:02.260Z,7.43
2019-05-07T17:13:02.978Z,5.83
2019-05-07T17:18:05.321Z,5.47
2019-05-07T17:23:07.782Z,6.50
2019-05-07T17:28:12.478Z,7.47
2019-05-07T17:33:13.011Z,12.60
2019-05-07T17:38:15.202Z,6.27
2019-05-07T17:43:17.660Z,6.57
2019-05-07T17:48:20.137Z,5.63
2019-05-07T17:53:22.658Z,9.50
2019-05-07T17:58:25.065Z,10.10
2019-05-07T18:03:33.456Z,12.47
2019-05-07T18:08:35.986Z,13.93
2019-05-07T18:13:38.439Z,7.33
2019-05-07T18:18:43.078Z,12.67
2019-05-07T18:23:43.485Z,14.77
2019-05-07T18:28:45.857Z,10.20
2019-05-07T18:33:48.433Z,9.13
2019-05-07T18:38:52.774Z,13.63
2019-05-07T18:43:54.706Z,6.77
2019-05-07T18:48:55.847Z,6.57
2019-05-07T18:53:58.395Z,8.43
2019-05-07T18:59:02.102Z,7.77
2019-05-07T19:04:03.246Z,10.50
2019-05-07T19:09:05.730Z,9.20
2019-05-07T19:14:08.257Z,10.93
2019-05-07T19:19:12.487Z,7.93
2019-05-07T19:24:13.201Z,6.83
2019-05-07T19:29:15.661Z,8.57
2019-05-07T19:34:18.137Z,7.90
2019-05-07T19:39:20.655Z,9.23
2019-05-07T19:44:23.125Z,8.70
2019-05-07T19:49:25.595Z,9.07
2019-05-07T19:54:28.102Z,10.43
2019-05-07T19:59:32.578Z,6.77
2019-05-07T20:04:33.211Z,11.00
2019-05-07T20:09:35.682Z,13.07
2019-05-07T20:14:38.153Z,10.37
2019-05-07T20:19:41.762Z,15.77
2019-05-07T20:24:43.105Z,11.77
2019-05-07T20:29:45.562Z,8.80
2019-05-07T20:34:48.059Z,11.10
2019-05-07T20:39:52.396Z,9.20
2019-05-07T20:44:53.031Z,7.07
2019-05-07T20:49:55.519Z,11.63
2019-05-07T20:55:04.136Z,10.87
2019-05-07T21:00:06.604Z,8.47
2019-05-07T21:05:09.077Z,9.03
2019-05-07T21:10:12.654Z,9.67
2019-05-07T21:15:14.031Z,6.27
2019-05-07T21:20:16.485Z,6.93
2019-05-07T21:25:18.959Z,6.43
2019-05-07T21:30:22.322Z,7.17
2019-05-07T21:35:23.945Z,6.77
2019-05-07T21:40:26.327Z,7.87
2019-05-07T21:45:28.803Z,7.87
2019-05-07T21:50:31.260Z,11.23
2019-05-07T21:55:36.660Z,9.97
2019-05-07T22:00:39.113Z,6.00
2019-05-07T22:05:44.106Z,10.33
2019-05-07T22:10:44.050Z,8.27
2019-05-07T22:15:46.510Z,8.47
2019-05-07T22:20:48.976Z,8.97
2019-05-07T22:25:51.576Z,8.67
2019-05-07T22:30:54.034Z,8.07
2019-05-07T22:36:01.762Z,7.83
2019-05-07T22:41:02.129Z,9.47
2019-05-07T22:46:03.042Z,9.17
2019-05-07T22:51:05.510Z,6.37
2019-05-07T22:56:07.989Z,11.53
2019-05-07T23:01:13.237Z,8.77
2019-05-07T23:06:15.641Z,7.30
2019-05-07T23:11:18.098Z,8.87
2019-05-07T23:16:22.941Z,10.57
2019-05-07T23:21:24.661Z,9.77
2019-05-07T23:26:25.469Z,9.23
2019-05-07T23:31:27.927Z,10.70
2019-05-07T23:36:30.388Z,10.47
2019-05-07T23:41:33.060Z,10.83
2019-05-07T23:46:35.332Z,9.80
2019-05-07T23:51:37.791Z,8.83
2019-05-07T23:56:42.470Z,8.80
